Time;durP1;ratioP1;P1;durP2;ratioP2;P2;SDS_P1;SDS_P2;PMS_P1;PMS_P2;Temp;Humidity;BMP_temperature;BMP_pressure;BME280_temperature;BME280_humidity;BME280_pressure;Samples;Min_cycle;Max_cycle;Signal;HPM_P1;HPM_P2
2022/08/27 00:00:26;;;;;;;12.25;6.13;;;20.10;99.90;;;;;;2603468;54;20918;31
2022/08/27 00:03:05;;;;;;;17.67;6.38;;;20.10;99.90;;;;;;2603220;54;19946;31
2022/08/27 00:05:39;;;;;;;11.55;6.50;;;20.00;99.90;;;;;;2603221;54;20027;31
2022/08/27 00:08:14;;;;;;;10.98;5.50;;;20.00;99.90;;;;;;2603092;54;20860;31
2022/08/27 00:10:48;;;;;;;11.45;6.38;;;20.00;99.90;;;;;;2603438;54;20026;31
2022/08/27 00:13:22;;;;;;;12.43;6.25;;;20.00;99.90;;;;;;2603198;54;20027;31
2022/08/27 00:15:56;;;;;;;8.30;5.60;;;20.00;99.90;;;;;;2603027;54;20226;31
2022/08/27 00:18:33;;;;;;;9.32;5.85;;;19.90;99.90;;;;;;2603225;54;20022;31
2022/08/27 00:21:07;;;;;;;8.70;5.22;;;20.00;99.90;;;;;;2603378;54;20034;31
2022/08/27 00:23:41;;;;;;;10.00;5.00;;;19.90;99.90;;;;;;2603548;54;20050;31
2022/08/27 00:26:16;;;;;;;9.47;5.00;;;20.00;99.90;;;;;;2603350;54;20060;31
2022/08/27 00:28:50;;;;;;;18.55;6.00;;;19.90;99.90;;;;;;2603182;54;20112;31
2022/08/27 00:31:24;;;;;;;17.27;6.90;;;20.00;99.90;;;;;;2603045;54;20955;31
2022/08/27 00:34:05;;;;;;;14.30;6.50;;;19.90;99.90;;;;;;2621529;46;20916;31
2022/08/27 00:36:40;;;;;;;15.93;5.70;;;19.90;99.90;;;;;;2602160;54;20030;31
2022/08/27 00:39:14;;;;;;;11.13;6.07;;;19.90;99.90;;;;;;2603302;54;20911;31
2022/08/27 00:41:49;;;;;;;16.23;6.20;;;19.80;99.90;;;;;;2603057;54;20042;31
2022/08/27 00:44:23;;;;;;;10.60;6.37;;;19.80;99.90;;;;;;2603128;54;20037;31
2022/08/27 00:47:00;;;;;;;15.40;5.88;;;19.80;99.90;;;;;;2603383;54;20023;31
2022/08/27 00:49:43;;;;;;;12.90;5.80;;;19.70;99.90;;;;;;2621541;47;20026;31
2022/08/27 00:52:17;;;;;;;11.57;5.95;;;19.60;99.90;;;;;;2602982;54;20852;31
2022/08/27 00:54:50;;;;;;;11.05;5.55;;;19.50;99.90;;;;;;2602971;54;20089;31
2022/08/27 00:57:26;;;;;;;11.75;6.10;;;19.50;99.90;;;;;;2621391;47;20033;31
2022/08/27 01:00:01;;;;;;;11.27;5.57;;;19.50;99.90;;;;;;2602941;54;20037;31
2022/08/27 01:02:35;;;;;;;14.83;6.30;;;19.50;99.90;;;;;;2602933;54;20776;31
2022/08/27 01:05:14;;;;;;;9.90;5.85;;;19.50;99.90;;;;;;2603073;54;20695;31
2022/08/27 01:07:50;;;;;;;8.83;5.50;;;19.40;99.90;;;;;;2621204;46;20027;31
2022/08/27 01:10:25;;;;;;;12.10;5.90;;;19.50;99.90;;;;;;2602970;54;20246;31
2022/08/27 01:12:59;;;;;;;9.07;4.95;;;19.40;99.90;;;;;;2621520;47;20062;31
2022/08/27 01:15:34;;;;;;;7.57;5.45;;;19.40;99.90;;;;;;2603086;54;19934;31
2022/08/27 01:18:12;;;;;;;6.88;5.10;;;19.30;99.90;;;;;;2603276;54;20030;31
2022/08/27 01:20:52;;;;;;;10.60;5.90;;;19.30;99.90;;;;;;2604017;54;20945;31
2022/08/27 01:23:29;;;;;;;17.80;6.47;;;19.30;99.90;;;;;;2622534;46;20793;31
2022/08/27 01:26:06;;;;;;;10.45;6.15;;;19.20;99.90;;;;;;2603648;54;20031;31
2022/08/27 01:28:40;;;;;;;7.38;5.43;;;19.10;99.90;;;;;;2603678;54;20096;31
2022/08/27 01:31:14;;;;;;;12.50;5.95;;;19.00;99.90;;;;;;2622559;46;20056;31
2022/08/27 01:33:56;;;;;;;9.32;5.15;;;19.00;99.90;;;;;;2603841;54;20023;31
2022/08/27 01:36:30;;;;;;;9.40;5.60;;;19.00;99.90;;;;;;2603548;54;20038;31
2022/08/27 01:39:04;;;;;;;10.15;5.35;;;19.00;99.90;;;;;;2604014;54;20146;31
2022/08/27 01:41:41;;;;;;;12.00;6.18;;;19.00;99.90;;;;;;2622581;46;20058;31
2022/08/27 01:44:15;;;;;;;12.95;6.47;;;18.90;99.90;;;;;;2622325;46;20812;31
2022/08/27 01:46:54;;;;;;;7.85;4.95;;;18.80;99.90;;;;;;2603719;54;20060;31
2022/08/27 01:49:28;;;;;;;8.60;5.53;;;18.90;99.90;;;;;;2603757;54;20053;31
2022/08/27 01:52:03;;;;;;;12.82;6.07;;;18.80;99.90;;;;;;2603737;54;20875;31
2022/08/27 01:54:36;;;;;;;10.25;6.75;;;18.90;99.90;;;;;;2603777;54;20026;31
2022/08/27 01:57:13;;;;;;;16.30;6.85;;;18.90;99.90;;;;;;2603554;54;20099;31
2022/08/27 01:59:47;;;;;;;10.55;6.63;;;18.80;99.90;;;;;;2603635;54;20027;31
2022/08/27 02:02:21;;;;;;;15.50;6.70;;;18.80;99.90;;;;;;2603550;54;20050;31
2022/08/27 02:04:55;;;;;;;13.43;7.10;;;18.80;99.90;;;;;;2621973;46;20051;31
2022/08/27 02:07:29;;;;;;;13.57;7.70;;;18.80;99.90;;;;;;2622428;46;20834;31
2022/08/27 02:10:03;;;;;;;10.75;5.85;;;18.80;99.90;;;;;;2603529;54;20093;31
2022/08/27 02:12:40;;;;;;;14.52;6.75;;;18.80;99.90;;;;;;2603696;54;20032;31
2022/08/27 02:15:14;;;;;;;11.82;6.53;;;18.80;99.90;;;;;;2603610;54;20037;31
2022/08/27 02:17:48;;;;;;;9.50;5.90;;;18.80;99.90;;;;;;2603728;54;20030;31
2022/08/27 02:20:22;;;;;;;12.20;6.30;;;18.80;99.90;;;;;;2603826;54;20996;31
2022/08/27 02:23:01;;;;;;;13.93;6.50;;;18.80;99.90;;;;;;2622050;46;20022;31
2022/08/27 02:25:35;;;;;;;12.52;7.05;;;18.80;99.90;;;;;;2603609;54;20037;31
2022/08/27 02:28:12;;;;;;;12.85;6.32;;;18.80;99.90;;;;;;2622177;46;20023;31
2022/08/27 02:30:46;;;;;;;14.30;8.10;;;18.70;99.90;;;;;;2603675;54;20093;31
2022/08/27 02:33:21;;;;;;;12.40;6.75;;;18.70;99.90;;;;;;2603393;54;20894;31
2022/08/27 02:35:54;;;;;;;16.77;7.60;;;18.70;99.90;;;;;;2603400;54;20096;31
2022/08/27 02:38:28;;;;;;;15.55;7.85;;;18.70;99.90;;;;;;2622104;46;20038;31
2022/08/27 02:41:02;;;;;;;7.72;6.18;;;18.60;99.90;;;;;;2603757;54;20825;31
2022/08/27 02:43:39;;;;;;;15.93;7.13;;;18.50;99.90;;;;;;2603384;54;20022;31
2022/08/27 02:46:14;;;;;;;12.32;7.75;;;18.60;99.90;;;;;;2603745;54;20033;31
2022/08/27 02:48:48;;;;;;;9.73;6.90;;;18.50;99.90;;;;;;2621769;46;20104;31
2022/08/27 02:51:22;;;;;;;13.00;6.82;;;18.40;99.90;;;;;;2622103;46;20863;31
2022/08/27 02:53:58;;;;;;;11.88;6.93;;;18.50;99.90;;;;;;2621984;46;20038;31
2022/08/27 02:56:32;;;;;;;13.75;6.78;;;18.50;99.90;;;;;;2603374;54;20042;31
2022/08/27 02:59:09;;;;;;;15.77;8.13;;;18.50;99.90;;;;;;2603509;54;20031;31
2022/08/27 03:01:46;;;;;;;11.50;6.80;;;18.40;99.90;;;;;;2603471;54;20901;31
2022/08/27 03:04:21;;;;;;;12.77;6.80;;;18.40;99.90;;;;;;2603475;54;20037;31
2022/08/27 03:06:55;;;;;;;10.90;6.93;;;18.40;99.90;;;;;;2621947;46;20945;31
2022/08/27 03:09:27;;;;;;;16.45;7.80;;;18.30;99.90;;;;;;2720298;39;22503;31
2022/08/27 03:12:01;;;;;;;9.82;6.07;;;18.30;99.90;;;;;;2603485;54;20105;31
2022/08/27 03:14:38;;;;;;;11.67;5.83;;;18.20;99.90;;;;;;2603484;54;20023;31
2022/08/27 03:20:03;;;;;;;13.73;7.18;;;18.10;99.90;;;;;;2603535;54;20038;31
2022/08/27 03:22:38;;;;;;;7.43;5.77;;;18.10;99.90;;;;;;2603281;54;20771;31
2022/08/27 03:25:13;;;;;;;9.15;6.35;;;18.10;99.90;;;;;;2621651;46;20266;31
2022/08/27 03:27:46;;;;;;;15.05;7.95;;;18.10;99.90;;;;;;2603394;54;20849;31
2022/08/27 03:30:24;;;;;;;8.77;6.65;;;18.10;99.90;;;;;;2622223;46;20899;31
2022/08/27 03:32:56;;;;;;;17.40;7.30;;;18.10;99.90;;;;;;2603374;54;20853;31
2022/08/27 03:35:31;;;;;;;11.63;7.28;;;18.00;99.90;;;;;;2621994;46;20030;31
2022/08/27 03:38:06;;;;;;;12.05;7.10;;;18.00;99.90;;;;;;2603159;54;20023;31
2022/08/27 03:40:41;;;;;;;9.98;6.60;;;18.00;99.90;;;;;;2621554;46;20108;31
2022/08/27 03:43:15;;;;;;;11.10;7.13;;;17.90;99.90;;;;;;2603267;54;20765;31
2022/08/27 03:45:52;;;;;;;12.38;6.35;;;17.80;99.90;;;;;;2603512;54;20033;31
2022/08/27 03:48:34;;;;;;;9.48;6.65;;;17.80;99.90;;;;;;2622270;46;20922;31
2022/08/27 03:51:09;;;;;;;10.93;6.17;;;17.80;99.90;;;;;;2603554;54;20038;31
2022/08/27 03:53:45;;;;;;;12.38;7.57;;;17.80;99.90;;;;;;2603223;54;20038;31
2022/08/27 03:56:19;;;;;;;11.02;7.40;;;17.80;99.90;;;;;;2621752;46;20097;31
2022/08/27 03:58:53;;;;;;;14.05;8.05;;;17.80;99.90;;;;;;2621863;46;20033;31
2022/08/27 04:01:30;;;;;;;11.03;6.60;;;17.80;99.90;;;;;;2603346;54;19941;31
2022/08/27 04:04:05;;;;;;;13.00;8.20;;;17.80;99.90;;;;;;2621568;46;20033;31
2022/08/27 04:06:40;;;;;;;9.55;6.97;;;17.80;99.90;;;;;;2603178;54;20092;31
2022/08/27 04:09:17;;;;;;;16.55;8.55;;;17.80;99.90;;;;;;2621744;46;20034;31
2022/08/27 04:11:51;;;;;;;11.05;7.85;;;17.80;99.90;;;;;;2603004;54;20924;31
2022/08/27 04:14:30;;;;;;;15.82;9.18;;;17.80;99.90;;;;;;2603154;54;20906;31
2022/08/27 04:17:10;;;;;;;12.13;6.80;;;17.90;99.90;;;;;;2602779;54;20038;31
2022/08/27 04:19:45;;;;;;;16.53;9.20;;;17.90;99.90;;;;;;2603245;54;20733;31
2022/08/27 04:22:22;;;;;;;15.02;10.68;;;17.90;99.90;;;;;;2621690;46;20049;31
2022/08/27 04:24:57;;;;;;;;;;;17.90;99.90;;;;;;2603674;54;20034;31
2022/08/27 04:27:32;;;;;;;15.40;11.17;;;17.90;99.90;;;;;;2603248;54;19934;31
2022/08/27 04:30:14;;;;;;;13.13;9.68;;;17.90;99.90;;;;;;2603377;54;19934;31
2022/08/27 04:32:51;;;;;;;19.52;10.13;;;17.90;99.90;;;;;;2621780;46;20884;31
2022/08/27 04:35:27;;;;;;;16.70;10.77;;;17.90;99.90;;;;;;2621373;46;20779;31
2022/08/27 04:38:02;;;;;;;14.35;9.18;;;18.00;99.90;;;;;;2603005;54;20107;31
2022/08/27 04:43:22;;;;;;;13.90;10.23;;;18.00;99.90;;;;;;2603181;54;20011;31
2022/08/27 04:45:57;;;;;;;20.38;10.32;;;18.10;99.90;;;;;;2603083;54;20234;31
2022/08/27 04:48:42;;;;;;;17.02;9.38;;;18.10;99.90;;;;;;2602919;54;20057;31
2022/08/27 04:51:17;;;;;;;16.55;11.00;;;18.20;99.90;;;;;;2603003;54;20046;31
2022/08/27 04:53:55;;;;;;;14.65;9.73;;;18.30;99.90;;;;;;2603793;54;20026;31
2022/08/27 04:56:34;;;;;;;12.98;9.95;;;18.50;99.90;;;;;;2603892;54;20101;31
2022/08/27 04:59:10;;;;;;;13.65;10.00;;;18.60;99.90;;;;;;2603627;54;20825;31
2022/08/27 05:01:46;;;;;;;9.98;7.88;;;18.80;99.90;;;;;;2603905;54;20789;31
2022/08/27 05:04:29;;;;;;;14.65;8.50;;;19.00;99.90;;;;;;2603836;54;20143;31
2022/08/27 05:07:05;;;;;;;16.23;11.05;;;19.10;99.90;;;;;;2604078;54;20030;31
2022/08/27 05:09:42;;;;;;;12.97;9.90;;;19.40;99.90;;;;;;2603952;54;20138;31
2022/08/27 05:12:19;;;;;;;16.00;9.32;;;19.50;99.90;;;;;;2605753;46;20030;31
2022/08/27 05:14:54;;;;;;;13.40;10.45;;;19.60;99.90;;;;;;2615927;46;20768;31
2022/08/27 05:17:30;;;;;;;15.47;9.70;;;19.80;99.90;;;;;;2622206;46;20038;31
2022/08/27 05:20:13;;;;;;;13.63;9.82;;;20.00;99.90;;;;;;2622109;46;20286;31
2022/08/27 05:22:48;;;;;;;16.75;10.90;;;20.20;99.90;;;;;;2603605;54;20037;31
2022/08/27 05:25:23;;;;;;;16.00;11.25;;;20.30;99.90;;;;;;2603606;54;20125;31
2022/08/27 05:27:58;;;;;;;16.80;10.23;;;20.50;99.90;;;;;;2603723;54;20070;31
2022/08/27 05:30:37;;;;;;;16.07;9.80;;;20.70;99.90;;;;;;2603687;54;20922;31
2022/08/27 05:35:53;;;;;;;15.60;8.97;;;21.10;99.90;;;;;;2603886;54;20030;31
2022/08/27 05:38:29;;;;;;;12.13;8.75;;;21.20;99.90;;;;;;2603742;54;20942;31
2022/08/27 05:41:10;;;;;;;;;;;21.40;99.90;;;;;;2622343;46;20831;31
2022/08/27 05:43:45;;;;;;;15.07;9.65;;;21.50;99.90;;;;;;2603708;54;19942;31
2022/08/27 05:46:24;;;;;;;13.23;8.75;;;21.70;99.90;;;;;;2702511;39;21103;31
2022/08/27 05:49:00;;;;;;;15.05;8.55;;;21.80;99.90;;;;;;2603594;54;20840;31
2022/08/27 05:51:37;;;;;;;;;;;22.10;99.90;;;;;;2603867;54;20161;31
2022/08/27 05:54:17;;;;;;;13.30;7.75;;;22.30;99.90;;;;;;2603874;54;19989;31
2022/08/27 05:56:52;;;;;;;17.92;9.10;;;22.50;99.90;;;;;;2603860;54;20030;31
2022/08/27 06:02:13;;;;;;;11.23;8.80;;;22.90;99.90;;;;;;2603580;54;20889;31
2022/08/27 06:04:48;;;;;;;12.52;9.25;;;23.10;99.90;;;;;;2621694;46;20404;31
2022/08/27 06:07:25;;;;;;;20.40;10.23;;;23.40;99.90;;;;;;2622379;46;20030;31
2022/08/27 06:10:01;;;;;;;16.88;10.07;;;23.50;99.90;;;;;;2621643;46;20026;31
2022/08/27 06:12:40;;;;;;;14.30;9.05;;;23.70;99.90;;;;;;2603746;54;20052;31
2022/08/27 06:15:15;;;;;;;13.05;9.98;;;23.90;99.90;;;;;;2613238;46;20029;31
2022/08/27 06:17:50;;;;;;;17.37;9.40;;;24.00;99.90;;;;;;2621807;46;20076;31
2022/08/27 06:20:25;;;;;;;13.43;8.60;;;24.10;99.90;;;;;;2603804;54;20057;31
2022/08/27 06:23:03;;;;;;;17.20;9.45;;;24.30;99.90;;;;;;2603555;54;20121;31
2022/08/27 06:25:43;;;;;;;14.70;9.80;;;24.60;99.90;;;;;;2603784;54;20265;31
2022/08/27 06:28:17;;;;;;;15.93;9.50;;;24.70;99.90;;;;;;2603763;54;20079;31
2022/08/27 06:30:52;;;;;;;12.13;8.55;;;25.00;99.90;;;;;;2603637;54;20049;31
2022/08/27 06:33:29;;;;;;;18.45;9.02;;;25.30;99.90;;;;;;2603691;54;20034;31
2022/08/27 06:36:08;;;;;;;20.55;9.60;;;25.50;99.90;;;;;;2603603;54;20046;31
2022/08/27 06:38:46;;;;;;;12.60;9.52;;;25.50;99.90;;;;;;2603645;54;20034;31
2022/08/27 06:41:23;;;;;;;14.90;8.75;;;25.70;99.90;;;;;;2603789;54;20853;31
2022/08/27 06:43:58;;;;;;;13.67;8.73;;;25.90;99.90;;;;;;2603614;54;20904;31
2022/08/27 06:46:34;;;;;;;15.27;8.63;;;26.10;99.90;;;;;;2603511;54;20873;31
2022/08/27 06:49:09;;;;;;;17.65;8.68;;;26.30;99.90;;;;;;2603330;54;20052;31
2022/08/27 06:51:45;;;;;;;11.85;7.85;;;26.50;99.90;;;;;;2603456;54;20035;31
2022/08/27 06:54:22;;;;;;;10.85;7.95;;;26.70;99.90;;;;;;2603440;54;20902;31
2022/08/27 06:56:59;;;;;;;12.73;8.63;;;26.90;99.90;;;;;;2603646;54;20105;31
2022/08/27 06:59:34;;;;;;;13.38;8.20;;;27.00;99.90;;;;;;2603319;54;20053;31
2022/08/27 07:02:11;;;;;;;15.30;8.60;;;27.00;99.90;;;;;;2603277;54;19941;31
2022/08/27 07:04:46;;;;;;;11.07;8.13;;;27.20;99.90;;;;;;2603625;54;20026;31
2022/08/27 07:07:22;;;;;;;15.70;8.80;;;27.20;99.90;;;;;;2603743;54;20026;31
2022/08/27 07:10:12;;;;;;;14.17;8.50;;;27.40;99.90;;;;;;2603537;54;20312;31
2022/08/27 07:12:47;;;;;;;14.60;8.80;;;27.60;99.90;;;;;;2603355;54;20251;31
2022/08/27 07:15:23;;;;;;;12.40;8.40;;;27.80;99.90;;;;;;2603256;54;20124;31
2022/08/27 07:18:04;;;;;;;12.82;8.63;;;27.90;99.90;;;;;;2603377;54;20031;31
2022/08/27 07:20:38;;;;;;;13.57;8.52;;;27.90;99.90;;;;;;2603804;54;21888;31
2022/08/27 07:23:14;;;;;;;12.73;7.82;;;28.10;99.90;;;;;;2603746;54;20889;31
2022/08/27 07:25:52;;;;;;;18.55;9.18;;;28.20;99.90;;;;;;2602943;54;20046;31
2022/08/27 07:28:26;;;;;;;13.73;8.98;;;28.20;99.90;;;;;;2603430;54;20035;31
2022/08/27 07:31:01;;;;;;;11.35;7.60;;;28.40;99.90;;;;;;2603287;54;20081;31
2022/08/27 07:33:38;;;;;;;15.52;7.63;;;28.50;99.90;;;;;;2621530;46;20869;31
2022/08/27 07:36:15;;;;;;;9.80;8.45;;;28.70;99.90;;;;;;2603615;54;20807;31
2022/08/27 07:38:53;;;;;;;10.70;8.05;;;28.80;99.90;;;;;;2603453;54;20881;31
2022/08/27 07:44:23;;;;;;;14.40;8.38;;;28.90;99.90;;;;;;2603706;54;20030;31
2022/08/27 07:44:34;;;;;;;15.00;9.10;;;29.00;99.90;;;;;;2603309;54;20856;31
2022/08/27 07:47:10;;;;;;;13.27;8.90;;;29.10;99.90;;;;;;2621915;46;20023;31
2022/08/27 07:49:47;;;;;;;;;;;29.30;99.90;;;;;;2603867;54;20246;31
2022/08/27 07:52:21;;;;;;;15.80;8.90;;;29.40;99.90;;;;;;2603349;54;20819;31
2022/08/27 07:55:00;;;;;;;14.95;8.00;;;29.30;99.90;;;;;;2603292;54;20023;31
2022/08/27 07:57:37;;;;;;;13.68;8.15;;;29.10;99.90;;;;;;2603290;54;20045;31
2022/08/27 08:00:13;;;;;;;17.73;8.05;;;28.80;99.90;;;;;;2621789;46;20025;31
2022/08/27 08:02:48;;;;;;;15.15;7.05;;;28.60;99.90;;;;;;2621955;46;20030;31
2022/08/27 08:05:23;;;;;;;10.13;6.95;;;28.50;99.90;;;;;;2603048;54;20671;31
2022/08/27 08:07:57;;;;;;;;;;;28.50;99.90;;;;;;2603760;54;20022;31
2022/08/27 08:10:32;;;;;;;13.27;7.55;;;28.40;99.90;;;;;;2621946;46;20454;31
2022/08/27 08:13:11;;;;;;;15.93;8.50;;;28.40;99.90;;;;;;2603389;54;20038;31
2022/08/27 08:15:45;;;;;;;14.35;8.38;;;28.40;99.90;;;;;;2621470;46;20027;31
2022/08/27 08:18:21;;;;;;;10.38;7.80;;;28.40;99.90;;;;;;2622157;46;20023;31
2022/08/27 08:20:55;;;;;;;16.20;7.38;;;28.40;99.90;;;;;;2621705;46;20897;31
2022/08/27 08:23:31;;;;;;;12.98;8.05;;;28.30;99.90;;;;;;2603112;54;20031;31
2022/08/27 08:26:07;;;;;;;11.10;7.83;;;28.10;99.90;;;;;;2603400;54;20022;31
2022/08/27 08:28:44;;;;;;;13.23;7.38;;;28.30;99.90;;;;;;2622050;46;21231;31
2022/08/27 08:31:19;;;;;;;14.13;7.80;;;28.40;99.90;;;;;;2603100;54;20030;31
2022/08/27 08:33:53;;;;;;;11.15;8.13;;;28.40;99.90;;;;;;2603460;54;20859;31
2022/08/27 08:36:28;;;;;;;11.95;7.10;;;28.40;99.90;;;;;;2603119;54;20049;31
2022/08/27 08:39:02;;;;;;;15.07;7.60;;;28.50;99.90;;;;;;2621498;46;20036;31
2022/08/27 08:41:40;;;;;;;9.77;7.55;;;28.50;99.90;;;;;;2603575;54;20895;31
2022/08/27 08:44:34;;;;;;;12.20;7.37;;;28.40;99.90;;;;;;2603348;54;20029;31
2022/08/27 08:47:10;;;;;;;7.55;6.65;;;28.50;99.90;;;;;;2603567;54;21150;31
2022/08/27 08:49:48;;;;;;;12.40;7.43;;;28.50;99.90;;;;;;2701596;39;20480;31
2022/08/27 08:52:31;;;;;;;12.18;7.22;;;28.40;99.90;;;;;;2621833;47;20850;31
2022/08/27 08:55:12;;;;;;;8.40;6.40;;;28.30;99.90;;;;;;2701632;39;21353;31
2022/08/27 08:57:50;;;;;;;9.23;6.90;;;28.60;99.90;;;;;;2603236;54;20108;31
2022/08/27 09:00:27;;;;;;;11.32;7.50;;;28.90;99.90;;;;;;2701437;39;20569;31
2022/08/27 09:03:01;;;;;;;9.73;6.40;;;29.00;99.90;;;;;;2603363;54;20026;31
2022/08/27 09:05:36;;;;;;;12.40;7.10;;;29.40;99.90;;;;;;2772986;31;20616;31
2022/08/27 09:08:15;;;;;;;10.03;6.47;;;29.60;99.90;;;;;;2603140;54;20033;31
2022/08/27 09:11:11;;;;;;;11.27;6.07;;;29.80;99.90;;;;;;2603029;54;20085;31
2022/08/27 09:13:49;;;;;;;11.98;6.95;;;29.90;99.90;;;;;;2603095;54;20027;31
2022/08/27 09:16:26;;;;;;;9.50;5.78;;;29.90;99.90;;;;;;2701699;39;20980;31
2022/08/27 09:19:03;;;;;;;11.55;5.78;;;30.10;99.90;;;;;;2603314;54;20038;31
2022/08/27 09:21:48;;;;;;;8.98;5.72;;;30.00;99.90;;;;;;2603000;54;20104;31
2022/08/27 09:24:25;;;;;;;8.55;5.20;;;29.90;99.90;;;;;;2603413;54;20862;31
2022/08/27 09:26:59;;;;;;;11.95;6.53;;;29.80;99.90;;;;;;2603175;54;20022;31
2022/08/27 09:29:36;;;;;;;9.80;5.30;;;29.90;99.90;;;;;;2603109;54;20052;31
2022/08/27 09:32:14;;;;;;;8.57;5.57;;;30.20;99.90;;;;;;2621958;47;20842;31
2022/08/27 09:34:49;;;;;;;19.25;7.20;;;30.20;99.90;;;;;;2602852;54;20838;31
2022/08/27 09:37:25;;;;;;;12.33;6.50;;;30.30;99.90;;;;;;2603097;54;20026;31
2022/08/27 09:40:10;;;;;;;9.68;5.55;;;30.30;99.90;;;;;;2603620;54;20860;31
2022/08/27 09:42:57;;;;;;;9.88;5.30;;;30.20;99.90;;;;;;2603756;54;20898;31
2022/08/27 09:45:30;;;;;;;9.38;5.75;;;30.30;99.90;;;;;;2622641;46;20026;31
2022/08/27 09:48:11;;;;;;;9.88;5.78;;;30.20;99.90;;;;;;2603640;54;20033;31
2022/08/27 09:50:48;;;;;;;7.63;5.60;;;30.10;99.90;;;;;;2604026;54;20865;31
2022/08/27 09:53:25;;;;;;;9.68;4.80;;;29.90;99.90;;;;;;2603801;54;20808;31
2022/08/27 09:56:01;;;;;;;8.23;5.15;;;29.70;99.90;;;;;;2603897;54;20914;31
2022/08/27 09:58:46;;;;;;;7.80;5.00;;;29.60;99.90;;;;;;2603663;54;20022;31
2022/08/27 10:01:22;;;;;;;9.98;5.32;;;29.50;99.90;;;;;;2603778;54;20038;31
2022/08/27 10:04:09;;;;;;;10.90;5.93;;;29.30;99.90;;;;;;2603885;54;20030;31
2022/08/27 10:06:47;;;;;;;9.75;4.90;;;29.30;99.90;;;;;;2603808;54;20041;31
2022/08/27 10:09:24;;;;;;;7.15;5.55;;;29.30;99.90;;;;;;2621893;46;20034;31
2022/08/27 10:12:01;;;;;;;9.45;5.10;;;29.30;99.90;;;;;;2603724;54;20774;31
2022/08/27 10:14:36;;;;;;;10.73;5.55;;;29.20;99.90;;;;;;2603638;54;20026;31
2022/08/27 10:17:13;;;;;;;;;;;29.20;99.90;;;;;;2603875;54;20042;31
2022/08/27 10:19:56;;;;;;;8.40;4.80;;;29.20;99.90;;;;;;2702247;39;20389;31
2022/08/27 10:22:37;;;;;;;8.85;5.00;;;29.40;99.90;;;;;;2603753;54;20045;31
2022/08/27 10:25:19;;;;;;;7.90;4.67;;;29.50;99.90;;;;;;2603738;54;20057;31
2022/08/27 10:27:59;;;;;;;8.60;4.85;;;29.70;99.90;;;;;;2603611;54;20030;31
2022/08/27 10:30:41;;;;;;;8.13;4.17;;;30.10;99.90;;;;;;2603677;54;20034;31
2022/08/27 10:33:19;;;;;;;7.40;4.35;;;30.40;99.90;;;;;;2603670;54;20027;31
2022/08/27 10:36:05;;;;;;;4.55;2.92;;;30.60;99.90;;;;;;2603789;54;20027;31
2022/08/27 10:38:44;;;;;;;6.33;3.57;;;30.60;99.90;;;;;;2720671;39;20469;31
2022/08/27 10:41:20;;;;;;;7.47;3.42;;;30.40;99.90;;;;;;2622090;46;21231;31
2022/08/27 10:44:29;;;;;;;8.23;4.43;;;30.20;99.90;;;;;;2603560;54;20022;31
2022/08/27 10:47:23;;;;;;;7.25;3.30;;;30.00;99.90;;;;;;2603692;54;20839;31
2022/08/27 10:50:02;;;;;;;6.00;3.90;;;29.90;99.90;;;;;;2603545;54;20810;31
2022/08/27 10:52:43;;;;;;;7.35;3.70;;;29.80;99.90;;;;;;2773454;31;20580;31
2022/08/27 10:55:15;;;;;;;4.95;3.10;;;29.60;99.90;;;;;;2622088;46;20049;31
2022/08/27 10:58:19;;;;;;;5.80;3.92;;;29.50;99.90;;;;;;2603554;54;20569;31
2022/08/27 11:00:58;;;;;;;5.97;3.67;;;29.50;99.90;;;;;;2603487;54;20022;31
2022/08/27 11:03:35;;;;;;;7.60;3.80;;;29.60;99.90;;;;;;2603677;54;19938;31
2022/08/27 11:06:16;;;;;;;6.97;3.60;;;29.70;99.90;;;;;;2603423;54;20672;31
2022/08/27 11:08:56;;;;;;;7.25;3.70;;;29.90;99.90;;;;;;2603535;54;20810;31
2022/08/27 11:11:35;;;;;;;7.22;3.95;;;30.10;99.90;;;;;;2603712;54;20023;31
2022/08/27 11:14:32;;;;;;;7.55;4.32;;;30.30;99.90;;;;;;2603615;54;20037;31
2022/08/27 11:17:08;;;;;;;6.95;4.20;;;30.50;99.90;;;;;;2603721;54;20023;31
2022/08/27 11:19:48;;;;;;;5.22;3.67;;;30.50;99.90;;;;;;2603422;54;20026;31
2022/08/27 11:22:28;;;;;;;6.33;3.83;;;30.50;99.90;;;;;;2603377;54;20026;31
2022/08/27 11:25:11;;;;;;;9.00;4.13;;;30.60;99.90;;;;;;2603462;54;20030;31
2022/08/27 11:27:46;;;;;;;6.18;3.95;;;30.70;99.90;;;;;;2701931;39;20553;31
2022/08/27 11:30:23;;;;;;;7.55;4.00;;;30.70;99.90;;;;;;2603451;54;20034;31
2022/08/27 11:33:02;;;;;;;10.83;5.10;;;30.80;99.90;;;;;;2603399;54;20085;31
2022/08/27 11:35:41;;;;;;;5.43;3.70;;;30.90;99.90;;;;;;2603747;54;20030;31
2022/08/27 11:38:48;;;;;;;13.73;4.18;;;30.80;99.90;;;;;;2603337;54;20121;31
2022/08/27 11:41:40;;;;;;;9.60;4.80;;;30.80;99.90;;;;;;2621602;46;19934;31
2022/08/27 11:44:18;;;;;;;6.38;4.22;;;30.70;99.90;;;;;;2603639;54;20038;31
2022/08/27 11:46:55;;;;;;;6.10;3.92;;;30.60;99.90;;;;;;2603405;54;20042;31
2022/08/27 11:49:31;;;;;;;8.93;4.38;;;30.60;99.90;;;;;;2603463;54;20116;31
2022/08/27 11:52:08;;;;;;;6.75;3.83;;;30.60;99.90;;;;;;2603433;54;20034;31
2022/08/27 11:54:47;;;;;;;8.00;4.00;;;30.60;99.90;;;;;;2603512;54;20022;31
2022/08/27 11:57:35;;;;;;;5.38;3.63;;;30.60;99.90;;;;;;2720408;39;20503;31
2022/08/27 12:00:20;;;;;;;5.68;2.92;;;30.80;99.90;;;;;;2621881;46;20815;31
2022/08/27 12:03:00;;;;;;;;;;;30.80;99.90;;;;;;2603165;54;20037;31
2022/08/27 12:05:37;;;;;;;4.85;2.95;;;30.90;99.90;;;;;;2603428;54;19941;31
2022/08/27 12:08:18;;;;;;;4.10;2.80;;;30.90;99.90;;;;;;2621719;46;20034;31
2022/08/27 12:11:14;;;;;;;8.00;3.30;;;30.90;99.90;;;;;;2603368;54;21197;31
2022/08/27 12:13:57;;;;;;;6.50;2.80;;;30.90;99.90;;;;;;2603235;54;20026;31
2022/08/27 12:16:36;;;;;;;4.70;3.15;;;30.80;99.90;;;;;;2603540;54;20580;31
2022/08/27 12:19:23;;;;;;;5.25;3.05;;;30.80;99.90;;;;;;2603210;54;20038;31
2022/08/27 12:22:10;;;;;;;3.83;3.10;;;30.70;99.90;;;;;;2603264;54;20069;31
2022/08/27 12:24:50;;;;;;;7.88;3.53;;;30.60;99.90;;;;;;2603118;54;20085;31
2022/08/27 12:27:31;;;;;;;3.95;2.88;;;30.40;99.90;;;;;;2603103;54;20053;31
2022/08/27 12:30:22;;;;;;;5.27;3.17;;;30.30;99.90;;;;;;2603313;54;20105;31
2022/08/27 12:32:55;;;;;;;3.80;2.80;;;30.10;99.90;;;;;;2603189;54;20034;31
2022/08/27 12:35:32;;;;;;;4.93;3.23;;;30.00;99.90;;;;;;2603237;54;20033;31
2022/08/27 12:38:12;;;;;;;5.47;3.40;;;30.00;99.90;;;;;;2603032;54;20584;31
2022/08/27 12:40:50;;;;;;;5.07;2.80;;;29.90;99.90;;;;;;2603147;54;20081;31
2022/08/27 12:43:26;;;;;;;6.47;3.60;;;29.80;99.90;;;;;;2603309;54;20053;31
2022/08/27 12:46:05;;;;;;;5.37;3.10;;;29.80;99.90;;;;;;2603136;54;20061;31
2022/08/27 12:48:39;;;;;;;5.18;2.90;;;29.80;99.90;;;;;;2603163;54;20242;31
2022/08/27 12:51:18;;;;;;;5.35;3.40;;;29.80;99.90;;;;;;2720053;39;20517;31
2022/08/27 12:53:53;;;;;;;6.85;2.92;;;29.80;99.90;;;;;;2621894;47;20873;31
2022/08/27 12:56:40;;;;;;;4.68;3.67;;;29.80;99.90;;;;;;2603194;54;20022;31
2022/08/27 12:59:28;;;;;;;6.18;3.70;;;29.90;99.90;;;;;;2603104;54;20890;31
2022/08/27 13:02:10;;;;;;;6.75;3.58;;;29.90;99.90;;;;;;2603004;54;20085;31
2022/08/27 13:04:45;;;;;;;8.13;2.85;;;29.80;99.90;;;;;;2603266;54;20035;31
2022/08/27 13:07:27;;;;;;;3.85;2.70;;;29.80;99.90;;;;;;2602935;54;20644;31
2022/08/27 13:10:12;;;;;;;4.47;2.83;;;29.70;99.90;;;;;;2621820;47;20030;31
2022/08/27 13:12:47;;;;;;;4.93;2.50;;;29.70;99.90;;;;;;2603268;54;20030;31
2022/08/27 13:15:21;;;;;;;3.87;2.87;;;29.70;99.90;;;;;;2603803;54;20506;31
2022/08/27 13:17:58;;;;;;;4.73;2.70;;;29.80;99.90;;;;;;2622222;46;20913;31
2022/08/27 13:20:37;;;;;;;5.40;2.90;;;29.80;99.90;;;;;;2604023;54;20026;31
2022/08/27 13:23:15;;;;;;;6.15;3.53;;;29.80;99.90;;;;;;2603824;54;20581;31
2022/08/27 13:25:59;;;;;;;3.35;2.97;;;29.80;99.90;;;;;;2603987;54;20557;31
2022/08/27 13:28:33;;;;;;;4.05;3.22;;;29.80;99.90;;;;;;2603920;54;20026;31
2022/08/27 13:31:07;;;;;;;6.65;3.03;;;29.80;99.90;;;;;;2604058;54;20031;31
2022/08/27 13:33:44;;;;;;;4.55;2.97;;;29.80;99.90;;;;;;2622459;46;20928;31
2022/08/27 13:36:28;;;;;;;3.90;3.10;;;29.80;99.90;;;;;;2604168;54;20795;31
2022/08/27 13:39:06;;;;;;;5.25;3.30;;;29.70;99.90;;;;;;2604051;54;20026;31
2022/08/27 13:41:40;;;;;;;6.43;3.47;;;29.70;99.90;;;;;;2603862;54;20022;31
2022/08/27 13:44:16;;;;;;;4.68;3.40;;;29.60;99.90;;;;;;2603427;54;20953;31
2022/08/27 13:46:50;;;;;;;6.75;3.15;;;29.60;99.90;;;;;;2604015;54;20022;31
2022/08/27 13:49:28;;;;;;;7.00;3.60;;;29.50;99.90;;;;;;2603962;54;20867;31
2022/08/27 13:52:03;;;;;;;4.32;3.20;;;29.50;99.90;;;;;;2603824;54;20943;31
2022/08/27 13:54:33;;;;;;;6.35;3.22;;;29.40;99.90;;;;;;2702595;39;21026;31
2022/08/27 13:57:12;;;;;;;6.57;2.97;;;29.50;99.90;;;;;;2603602;54;20105;31